»·PEaware :: N313N KSAC-KSBP

N313N :: KSAC-KSBP

FLIGHT INFORMATION

Flight Status: Arrived
Operator: Privately registered:
United States
More flights under this callsign
Pilot: Damien O. (2415)
Aircraft: GULFSTREAM G-1159C GULFSTREAM 4
(GLF4)
More flights by this aircraft type
Origin: KSAC Sacramento Executive
United States
Destination: KSBP San Luis Co Regl
United States
More flights between these airports :: More routes between these airports
Route: +PXN MQO
File this flight plan on PilotEdge
Remarks:
Altitude:
(Current/Filed)
21,000ft
Speed:
(Current/Filed)
280kts
Departed: 08-Nov-19 09:37 AM
Arrived: 08-Nov-19 10:27 AM
Distance/Time
Traveled:
201nm/0:50
Distance/Time
To Go:
Arrived

Flight Plot

Page will automatically refresh every two minutes.

Flight plan parsing failed; only flown route is shown


Map Options




Map Legend


Flown Route
Filed Route
Departure Airport
Arrival Airport
Navaid (VOR, NDB)
Fix

Horizontal Profiles

Position Reports

Time Latitude Longitude Heading Altitude Ground
Speed
08-Nov-19 09:27 38.514745 -121.499242 223 31ft 0kts
08-Nov-19 09:28 38.514745 -121.499242 223 31ft 0kts
08-Nov-19 09:29 38.514745 -121.499242 223 31ft 0kts
08-Nov-19 09:30 38.514721 -121.499246 183 31ft 1kts
08-Nov-19 09:31 38.514217 -121.497716 133 31ft 6kts
08-Nov-19 09:32 38.513565 -121.495797 105 31ft 5kts
08-Nov-19 09:33 38.515609 -121.493780 33 31ft 32kts
08-Nov-19 09:34 38.519135 -121.490052 109 31ft 0kts
08-Nov-19 09:35 38.519135 -121.490052 109 31ft 0kts
08-Nov-19 09:36 38.502641 -121.501783 196 310ft 211kts
08-Nov-19 09:37 38.477873 -121.452077 75 2302ft 224kts
08-Nov-19 09:38 38.505093 -121.384748 107 4901ft 267kts
08-Nov-19 09:39 38.447574 -121.340930 163 7835ft 276kts
08-Nov-19 09:40 38.382600 -121.315024 163 10476ft 284kts
08-Nov-19 09:41 38.315912 -121.288586 163 13102ft 293kts
08-Nov-19 09:42 38.245833 -121.260898 163 16507ft 314kts
08-Nov-19 09:43 38.164800 -121.229722 163 20072ft 356kts
08-Nov-19 09:44 38.085347 -121.200337 163 22206ft 369kts
08-Nov-19 09:45 37.995410 -121.167850 163 23251ft 441kts
08-Nov-19 09:46 37.903596 -121.134778 163 23254ft 437kts
08-Nov-19 09:47 37.822818 -121.105638 163 23256ft 437kts
08-Nov-19 09:48 37.734865 -121.073858 163 23252ft 437kts
08-Nov-19 09:49 37.641385 -121.043724 167 23251ft 437kts
08-Nov-19 09:50 37.552517 -121.022266 168 23247ft 437kts
08-Nov-19 09:51 37.455205 -120.998722 168 23239ft 437kts
08-Nov-19 09:52 37.355663 -120.974594 167 23246ft 437kts
08-Nov-19 09:53 37.255026 -120.950155 167 23246ft 436kts
08-Nov-19 09:54 37.156632 -120.926227 167 23251ft 436kts
08-Nov-19 09:55 37.058948 -120.902903 167 23258ft 437kts
08-Nov-19 09:56 36.958794 -120.881520 167 23268ft 445kts
08-Nov-19 09:57 36.857225 -120.861194 167 23268ft 445kts
08-Nov-19 09:58 36.735024 -120.836714 167 23264ft 445kts
08-Nov-19 09:59 36.611704 -120.801407 177 23266ft 450kts
08-Nov-19 10:00 36.488499 -120.803987 177 23268ft 450kts
08-Nov-19 10:01 36.366010 -120.806502 177 23277ft 449kts
08-Nov-19 10:02 36.246942 -120.808885 177 22968ft 452kts
08-Nov-19 10:03 36.125984 -120.810775 177 21173ft 433kts
08-Nov-19 10:04 36.010397 -120.811785 177 19407ft 422kts
08-Nov-19 10:05 35.901990 -120.812126 177 17621ft 373kts
08-Nov-19 10:06 35.813539 -120.812177 177 15961ft 334kts
08-Nov-19 10:07 35.741667 -120.811791 177 14634ft 314kts
08-Nov-19 10:08 35.662152 -120.811098 177 12852ft 266kts
08-Nov-19 10:09 35.590169 -120.809998 177 11062ft 262kts
08-Nov-19 10:10 35.519405 -120.808784 177 9293ft 258kts
08-Nov-19 10:11 35.450144 -120.807286 177 7532ft 254kts
08-Nov-19 10:12 35.383826 -120.801465 167 7018ft 253kts
08-Nov-19 10:13 35.316006 -120.784916 167 6999ft 252kts
08-Nov-19 10:14 35.259482 -120.742256 132 6029ft 250kts
08-Nov-19 10:15 35.216580 -120.686903 132 4993ft 189kts
08-Nov-19 10:17 35.181194 -120.641498 132 5001ft 191kts
08-Nov-19 10:18 35.144748 -120.594692 132 5001ft 191kts
08-Nov-19 10:19 35.108621 -120.548294 132 5003ft 191kts
08-Nov-19 10:20 35.073081 -120.502659 131 4984ft 167kts
08-Nov-19 10:21 35.089705 -120.458210 42 4005ft 156kts
08-Nov-19 10:22 35.126602 -120.459962 312 3474ft 175kts
08-Nov-19 10:23 35.150164 -120.501160 307 2912ft 163kts
08-Nov-19 10:24 35.175334 -120.541059 308 2520ft 164kts
08-Nov-19 10:25 35.200426 -120.584927 296 2057ft 182kts
08-Nov-19 10:26 35.228598 -120.625468 305 379ft 147kts
08-Nov-19 10:27 35.237793 -120.639882 0 220ft 11kts
08-Nov-19 10:28 35.238235 -120.640045 247 220ft 0kts

Navigation Log

Ident Type
Flight plan parsing failed, navigation log unavailable